Terminal Aerodrome Forecast
Issued by NWS

Home | Current Version | Previous Version | Text Only | Print | Product List | Glossary On
Versions: 1 2 3 4 5 6 7 8 9 10 11 12 13 14 15
000
FTUS43 KFGF 281617 AAB
TAFBJI
TAF AMD
KBJI 281617Z 2816/2912 14005KT P6SM OVC015
     FM281900 15008KT P6SM VCSH OVC015
     FM282200 32007KT P6SM OVC008
      TEMPO 2822/2824 4SM -SHRA OVC003
     FM290400 31007KT P6SM BKN010
     FM290700 30006KT P6SM SCT008=

USA.gov is the U.S. government's official web portal to all federal, state and local government web resources and services.